Terminal Aerodrome Forecast
Issued by NWS

Home | Current Version | Previous Version | Graphics & Text | Print | Product List | Glossary On
Versions: 1 2 3 4 5 6 7 8 9 10 11 12 13 14 15
000
FTUS43 KIWX 270900 AAA
TAFSBN
TAF AMD
KSBN 270931Z 2710/2806 09004KT P6SM SKC
     FM271100 09002KT 4SM BR SCT250
      TEMPO 2711/2713 2SM BR
     FM271300 11007KT P6SM BKN250=

USA.gov is the U.S. government's official web portal to all federal, state and local government web resources and services.